createdAt,value
2022-10-29T00:00:20.698Z,9.1
2022-10-29T00:03:50.237Z,8.5
2022-10-29T00:06:37.634Z,8.4
2022-10-29T00:09:25.373Z,9.7
2022-10-29T00:12:12.711Z,8.7
2022-10-29T00:15:32.038Z,9.8
2022-10-29T00:18:19.316Z,9.6
2022-10-29T00:21:07.407Z,9.4
2022-10-29T00:23:58.229Z,9.3
2022-10-29T00:26:45.564Z,8.7
2022-10-29T00:29:32.960Z,8.6
2022-10-29T00:32:20.627Z,8.8
2022-10-29T00:35:09.180Z,9
2022-10-29T00:37:56.798Z,9.4
2022-10-29T00:40:44.667Z,9
2022-10-29T00:44:06.683Z,9.7
2022-10-29T00:47:26.197Z,9.6
2022-10-29T00:50:16.530Z,9.7
2022-10-29T00:53:08.443Z,9.9
2022-10-29T00:55:55.932Z,9.9
2022-10-29T00:58:44.198Z,11
2022-10-29T01:01:32.229Z,9.7
2022-10-29T01:04:20.775Z,9.1
2022-10-29T01:07:10.234Z,10
2022-10-29T01:09:57.790Z,9.7
2022-10-29T01:13:28.545Z,9.8
2022-10-29T01:22:01.735Z,9.5
2022-10-29T01:24:55.270Z,8.7
2022-10-29T01:28:04.964Z,9.5
2022-10-29T01:31:09.957Z,8.4
2022-10-29T01:34:10.109Z,9.6
2022-10-29T01:37:07.712Z,8.7
2022-10-29T01:40:40.769Z,8.5
2022-10-29T01:43:39.216Z,8
2022-10-29T01:46:34.577Z,8.8
2022-10-29T01:49:28.098Z,7.9
2022-10-29T01:52:21.345Z,7.9
2022-10-29T01:55:13.965Z,7.5
2022-10-29T01:58:05.734Z,7.8
2022-10-29T02:00:57.449Z,8.3
2022-10-29T02:04:28.265Z,7.3
2022-10-29T02:07:56.965Z,7.5
2022-10-29T02:10:59.104Z,7.3
2022-10-29T02:13:52.722Z,7.4
2022-10-29T02:16:47.996Z,6.6
2022-10-29T02:19:36.215Z,7.6
2022-10-29T02:22:23.973Z,6.7
2022-10-29T02:25:11.889Z,7.1
2022-10-29T02:27:59.559Z,6.6
2022-10-29T02:30:47.214Z,6.9
2022-10-29T02:33:35.605Z,6.6
2022-10-29T02:36:23.644Z,7.3
2022-10-29T02:39:43.008Z,7.3
2022-10-29T02:42:30.601Z,7.2
2022-10-29T02:45:18.237Z,7
2022-10-29T02:48:05.825Z,7.1
2022-10-29T02:50:53.480Z,6.9
2022-10-29T02:53:40.986Z,7.6
2022-10-29T02:56:29.126Z,7.2
2022-10-29T02:59:48.950Z,7.7
2022-10-29T03:03:09.534Z,7.5
2022-10-29T03:06:28.779Z,6.4
2022-10-29T03:09:16.494Z,6.8
2022-10-29T03:12:36.213Z,6.6
2022-10-29T03:15:56.408Z,7.2
2022-10-29T03:18:43.991Z,7.4
2022-10-29T03:21:31.771Z,7.1
2022-10-29T03:24:51.459Z,6.6
2022-10-29T03:27:39.181Z,6.8
2022-10-29T03:30:27.706Z,6.7
2022-10-29T03:33:15.425Z,6.5
2022-10-29T03:36:35.333Z,6.6
2022-10-29T03:39:23.752Z,7
2022-10-29T03:42:43.456Z,6.9
2022-10-29T03:45:31.170Z,7.3
2022-10-29T03:48:18.836Z,7.3
2022-10-29T03:51:07.530Z,7.2
2022-10-29T03:53:55.968Z,6.7
2022-10-29T03:56:43.556Z,7.3
2022-10-29T04:00:03.166Z,7.5
2022-10-29T04:02:52.673Z,7.1
2022-10-29T04:05:40.203Z,6.3
2022-10-29T04:08:27.863Z,6.9
2022-10-29T04:11:15.575Z,6.9
2022-10-29T04:14:03.165Z,7.8
2022-10-29T04:17:23.228Z,7.2
2022-10-29T04:20:21.147Z,7.2
2022-10-29T04:28:41.805Z,7.1
2022-10-29T04:31:34.486Z,6.8
2022-10-29T04:34:53.897Z,7.2
2022-10-29T04:37:41.488Z,7.2
2022-10-29T04:40:29.344Z,6.8
2022-10-29T04:43:49.439Z,7.7
2022-10-29T04:46:37.055Z,6.4
2022-10-29T04:49:24.598Z,7.2
2022-10-29T04:52:44.676Z,7.7
2022-10-29T04:56:04.952Z,7.2
2022-10-29T04:58:52.621Z,6.7
2022-10-29T05:02:12.136Z,7
2022-10-29T05:04:59.770Z,7.9
2022-10-29T05:08:21.584Z,7.6
2022-10-29T05:11:10.376Z,6.7
2022-10-29T05:13:58.061Z,7.6
2022-10-29T05:16:45.561Z,7.2
2022-10-29T05:19:33.043Z,7.7
2022-10-29T05:22:20.990Z,7.5
2022-10-29T05:25:09.655Z,8.3
2022-10-29T05:28:33.685Z,7.3
2022-10-29T05:31:53.476Z,8
2022-10-29T05:34:44.447Z,8.3
2022-10-29T05:37:32.210Z,8.6
2022-10-29T05:40:19.762Z,8.1
2022-10-29T05:43:09.755Z,8.1
2022-10-29T05:45:58.164Z,7.8
2022-10-29T05:48:48.459Z,8.4
2022-10-29T05:51:36.082Z,8.3
2022-10-29T05:54:23.812Z,8.3
2022-10-29T05:57:11.338Z,7.5
2022-10-29T06:00:31.011Z,8
2022-10-29T06:03:20.492Z,8.1
2022-10-29T06:06:09.741Z,7.9
2022-10-29T06:08:57.506Z,9.2
2022-10-29T06:11:45.208Z,7.8
2022-10-29T06:14:32.842Z,7.8
2022-10-29T06:17:20.510Z,8
2022-10-29T06:20:40.047Z,7.6
2022-10-29T06:23:28.224Z,8.1
2022-10-29T06:26:48.324Z,8.6
2022-10-29T06:29:38.739Z,8.4
2022-10-29T06:32:26.902Z,8.7
2022-10-29T06:35:14.756Z,8.4
2022-10-29T06:38:04.068Z,8.7
2022-10-29T06:40:54.009Z,8
2022-10-29T06:43:41.642Z,8.6
2022-10-29T06:46:29.226Z,8.7
2022-10-29T06:49:18.821Z,8.3
2022-10-29T06:52:07.123Z,8.2
2022-10-29T06:54:54.749Z,8.6
2022-10-29T06:57:42.252Z,8.2
2022-10-29T07:00:30.001Z,8.6
2022-10-29T07:03:18.949Z,9
2022-10-29T07:06:07.910Z,7.6
2022-10-29T07:09:27.420Z,8.3
2022-10-29T07:12:14.943Z,7.9
2022-10-29T07:15:02.549Z,8.3
2022-10-29T07:17:51.207Z,7.1
2022-10-29T07:20:40.811Z,7.7
2022-10-29T07:26:17.823Z,8.5
2022-10-29T07:29:05.358Z,8
2022-10-29T07:32:24.663Z,8.9
2022-10-29T07:35:44.871Z,7.7
2022-10-29T07:38:32.533Z,8
2022-10-29T07:41:20.083Z,8.1
2022-10-29T07:44:40.011Z,7.9
2022-10-29T07:47:27.754Z,8.8
2022-10-29T07:50:15.222Z,8
2022-10-29T07:53:02.885Z,9.2
2022-10-29T07:56:23.042Z,9.3
2022-10-29T07:59:11.079Z,9.8
2022-10-29T08:02:31.698Z,9
2022-10-29T08:05:19.292Z,9
2022-10-29T08:08:08.109Z,9.7
2022-10-29T08:10:55.736Z,9.2
2022-10-29T08:13:46.033Z,8.8
2022-10-29T08:16:33.977Z,8.6
2022-10-29T08:19:21.971Z,9.8
2022-10-29T08:22:10.996Z,8.8
2022-10-29T08:24:59.954Z,9.4
2022-10-29T08:27:47.886Z,8.3
2022-10-29T08:30:44.413Z,8.6
2022-10-29T08:33:35.953Z,8.9
2022-10-29T08:36:24.383Z,10.4
2022-10-29T08:39:11.924Z,9.4
2022-10-29T08:41:59.543Z,9.9
2022-10-29T08:45:03.290Z,8.4
2022-10-29T08:48:00.811Z,10
2022-10-29T08:51:05.114Z,8
2022-10-29T08:54:31.490Z,8.2
2022-10-29T08:57:23.717Z,9.3
2022-10-29T09:00:14.122Z,8.8
2022-10-29T09:03:04.995Z,9.2
2022-10-29T09:05:56.497Z,8
2022-10-29T09:08:55.683Z,8.7
2022-10-29T09:11:55.773Z,8.6
2022-10-29T09:15:32.826Z,8.7
2022-10-29T09:18:35.968Z,8.2
2022-10-29T09:21:42.084Z,8
2022-10-29T09:24:39.027Z,9.1
2022-10-29T09:27:36.115Z,9.1
2022-10-29T09:30:36.935Z,7.9
2022-10-29T09:33:32.737Z,8.6
2022-10-29T09:36:20.688Z,10
2022-10-29T09:39:10.514Z,8.9
2022-10-29T09:42:01.671Z,8
2022-10-29T09:44:55.907Z,9
2022-10-29T09:47:47.222Z,8.1
2022-10-29T09:51:15.613Z,8.8
2022-10-29T09:54:14.121Z,9.2
2022-10-29T09:57:01.982Z,7.2
2022-10-29T09:59:50.556Z,8
2022-10-29T10:03:13.504Z,8
2022-10-29T10:06:07.101Z,7.7
2022-10-29T10:08:56.322Z,7.1
2022-10-29T10:12:36.892Z,7.3
2022-10-29T10:15:59.701Z,6.2
2022-10-29T10:18:52.916Z,6.5
2022-10-29T10:21:40.794Z,7
2022-10-29T10:25:06.549Z,6.4
2022-10-29T10:28:17.492Z,7.2
2022-10-29T10:31:08.110Z,6.3
2022-10-29T10:33:58.238Z,6.6
2022-10-29T10:36:54.408Z,6
2022-10-29T10:39:49.268Z,6.3
2022-10-29T10:43:10.732Z,4.7
2022-10-29T10:46:05.499Z,5.4
2022-10-29T10:48:59.785Z,5.7
2022-10-29T10:51:51.932Z,5.2
2022-10-29T10:54:41.522Z,4.7
2022-10-29T10:57:32.724Z,4.9
2022-10-29T11:00:25.835Z,4.3
2022-10-29T11:03:19.596Z,4.8
2022-10-29T11:06:15.499Z,4.1
2022-10-29T11:09:08.830Z,3.7
2022-10-29T11:12:34.243Z,4.1
2022-10-29T11:16:01.270Z,3.8
2022-10-29T11:18:57.724Z,5.5
2022-10-29T11:22:24.568Z,4.9
2022-10-29T11:25:18.141Z,3.8
2022-10-29T11:28:14.455Z,3.2
2022-10-29T11:31:11.404Z,3
2022-10-29T11:34:40.543Z,3.4
2022-10-29T11:37:37.891Z,3
2022-10-29T11:40:41.844Z,3
2022-10-29T11:43:35.890Z,3.7
2022-10-29T11:46:58.484Z,3.5
2022-10-29T11:50:34.137Z,3.7
2022-10-29T11:53:32.686Z,3.6
2022-10-29T11:56:37.244Z,3.8
2022-10-29T11:59:34.540Z,3.7
2022-10-29T12:02:29.997Z,3.7
2022-10-29T12:06:05.661Z,3.1
2022-10-29T12:09:02.541Z,3.7
2022-10-29T12:12:24.195Z,2.9
2022-10-29T12:15:22.448Z,3.5
2022-10-29T12:18:57.274Z,3.8
2022-10-29T12:21:54.722Z,3.5
2022-10-29T12:25:23.280Z,3.9
2022-10-29T12:28:22.997Z,4.2
2022-10-29T12:31:20.842Z,3.4
2022-10-29T12:34:15.333Z,4
2022-10-29T12:37:11.435Z,3.6
2022-10-29T12:40:06.132Z,3.7
2022-10-29T12:43:01.743Z,3.4
2022-10-29T12:46:24.438Z,3.3
2022-10-29T12:49:21.255Z,3.3
2022-10-29T12:52:25.342Z,3.7
2022-10-29T12:55:56.341Z,3.4
2022-10-29T12:58:44.339Z,4
2022-10-29T13:02:05.341Z,3.6
2022-10-29T13:05:29.642Z,3.4
2022-10-29T13:08:23.475Z,4.4
2022-10-29T13:11:43.086Z,3.9
2022-10-29T13:14:34.257Z,4.1
2022-10-29T13:17:26.431Z,3.6
2022-10-29T13:20:18.241Z,4.5
2022-10-29T13:23:10.768Z,4.4
2022-10-29T13:26:19.573Z,4.3
2022-10-29T13:29:39.021Z,4.4
2022-10-29T13:33:06.730Z,4.2
2022-10-29T13:36:41.821Z,4.7
2022-10-29T13:39:29.480Z,4.4
2022-10-29T13:42:17.217Z,4.4
2022-10-29T13:45:05.031Z,3.9
2022-10-29T13:47:56.970Z,4.8
2022-10-29T13:50:49.632Z,4.2
2022-10-29T13:53:39.724Z,3.8
2022-10-29T13:57:07.243Z,4.3
2022-10-29T14:00:04.650Z,4.4
2022-10-29T14:03:03.053Z,4.5
2022-10-29T14:06:01.427Z,4.6
2022-10-29T14:09:25.202Z,4.5
2022-10-29T14:12:23.243Z,4.6
2022-10-29T14:15:16.045Z,4.2
2022-10-29T14:18:47.604Z,4.6
2022-10-29T14:21:36.418Z,5.1
2022-10-29T14:24:25.250Z,4.7
2022-10-29T14:27:46.882Z,4.4
2022-10-29T14:30:54.226Z,4.6
2022-10-29T14:33:48.326Z,4.5
2022-10-29T14:37:11.697Z,4.5
2022-10-29T14:40:04.423Z,4.6
2022-10-29T14:43:03.578Z,4.7
2022-10-29T14:45:51.783Z,5.3
2022-10-29T14:48:53.757Z,4.7
2022-10-29T14:51:47.833Z,5.7
2022-10-29T14:54:39.030Z,5.3
2022-10-29T14:57:27.227Z,5.4
2022-10-29T15:00:50.788Z,5.6
2022-10-29T15:03:42.162Z,5.7
2022-10-29T15:06:31.105Z,5.9
2022-10-29T15:10:17.977Z,5.9
2022-10-29T15:13:39.293Z,5.6
2022-10-29T15:16:26.900Z,5.3
2022-10-29T15:19:15.871Z,5.5
2022-10-29T15:22:04.011Z,6.5
2022-10-29T15:24:54.438Z,12.6
2022-10-29T15:27:42.496Z,14.9
2022-10-29T15:30:30.369Z,16.4
2022-10-29T15:33:20.060Z,15.1
2022-10-29T15:36:40.624Z,15.5
2022-10-29T15:39:33.193Z,13.3
2022-10-29T15:42:45.546Z,8.5
2022-10-29T15:45:34.010Z,8.3
2022-10-29T15:48:22.359Z,8.2
2022-10-29T15:51:20.353Z,7.8
2022-10-29T15:54:11.427Z,6.7
2022-10-29T15:56:59.342Z,6.5
2022-10-29T15:59:46.988Z,6
2022-10-29T16:02:40.084Z,6.1
2022-10-29T16:05:27.612Z,6.8
2022-10-29T16:08:15.628Z,6.8
2022-10-29T16:11:10.858Z,6.8
2022-10-29T16:14:00.753Z,6.9
2022-10-29T16:16:48.377Z,7
2022-10-29T16:19:36.087Z,6.6
2022-10-29T16:23:00.126Z,5.8
2022-10-29T16:26:23.768Z,5.8
2022-10-29T16:29:12.101Z,7.2
2022-10-29T16:32:00.807Z,7.9
2022-10-29T16:34:48.650Z,9.2
2022-10-29T16:37:37.047Z,8.2
2022-10-29T16:40:24.575Z,7.7
2022-10-29T16:43:44.470Z,7.2
2022-10-29T16:46:32.869Z,6.6
2022-10-29T16:49:20.664Z,6
2022-10-29T16:52:40.705Z,6.7
2022-10-29T16:55:28.624Z,6.4
2022-10-29T16:58:16.227Z,6.7
2022-10-29T17:01:05.097Z,6.3
2022-10-29T17:03:55.066Z,6.2
2022-10-29T17:07:14.874Z,7.5
2022-10-29T17:10:03.155Z,7
2022-10-29T17:12:53.667Z,6.6
2022-10-29T17:15:41.573Z,7.3
2022-10-29T17:18:29.868Z,8
2022-10-29T17:21:18.191Z,7.7
2022-10-29T17:24:38.258Z,8.8
2022-10-29T17:27:26.086Z,7.3
2022-10-29T17:30:45.527Z,8.3
2022-10-29T17:34:06.113Z,10.2
2022-10-29T17:36:53.721Z,10.1
2022-10-29T17:39:41.590Z,9
2022-10-29T17:42:29.418Z,8.5
2022-10-29T17:45:17.201Z,9.5
2022-10-29T17:48:07.272Z,9.9
2022-10-29T17:50:55.408Z,9.5
2022-10-29T17:54:15.131Z,9.9
2022-10-29T17:57:02.958Z,9.9
2022-10-29T18:00:23.059Z,8.3
2022-10-29T18:03:11.233Z,7.9
2022-10-29T18:06:30.742Z,8.8
2022-10-29T18:09:21.126Z,9.8
2022-10-29T18:12:09.975Z,8.8
2022-10-29T18:14:57.550Z,8
2022-10-29T18:17:45.292Z,9
2022-10-29T18:20:32.985Z,9.3
2022-10-29T18:23:56.482Z,8.8
2022-10-29T18:26:44.162Z,10.5
2022-10-29T18:29:34.539Z,12.4
2022-10-29T18:32:22.350Z,14.8
2022-10-29T18:35:10.981Z,12.9
2022-10-29T18:38:31.023Z,17.4
2022-10-29T18:41:51.443Z,14.1
2022-10-29T18:44:39.019Z,13.1
2022-10-29T18:47:26.705Z,14.3
2022-10-29T18:50:14.473Z,12.5
2022-10-29T18:53:02.471Z,14.7
2022-10-29T18:55:50.030Z,15.5
2022-10-29T18:59:11.901Z,14
2022-10-29T19:01:59.843Z,13.3
2022-10-29T19:04:47.878Z,13.2
2022-10-29T19:07:35.568Z,12.2
2022-10-29T19:10:23.406Z,11.3
2022-10-29T19:13:11.015Z,10.8
2022-10-29T19:15:58.942Z,11.9
2022-10-29T19:18:47.898Z,11.2
2022-10-29T19:22:08.515Z,12
2022-10-29T19:24:56.212Z,11.6
2022-10-29T19:27:44.011Z,10.8
2022-10-29T19:31:03.447Z,11.7
2022-10-29T19:33:53.762Z,11.3
2022-10-29T19:36:44.466Z,12.5
2022-10-29T19:39:32.265Z,12.1
2022-10-29T19:42:19.943Z,11.5
2022-10-29T19:45:08.269Z,11.9
2022-10-29T19:47:56.521Z,11.9
2022-10-29T19:50:44.391Z,12.6
2022-10-29T19:53:38.470Z,13.2
2022-10-29T19:56:26.040Z,12.2
2022-10-29T19:59:13.843Z,13
2022-10-29T20:02:01.534Z,12.6
2022-10-29T20:04:49.400Z,13
2022-10-29T20:07:37.098Z,13.4
2022-10-29T20:10:24.734Z,13.7
2022-10-29T20:13:12.430Z,13.8
2022-10-29T20:15:59.897Z,14.5
2022-10-29T20:18:53.191Z,14.2
2022-10-29T20:21:40.963Z,15.3
2022-10-29T20:24:28.594Z,17.9
2022-10-29T20:27:16.234Z,15.4
2022-10-29T20:30:04.159Z,20
2022-10-29T20:32:55.047Z,23.3
2022-10-29T20:35:43.138Z,29.1
2022-10-29T20:39:03.155Z,33.9
2022-10-29T20:41:52.164Z,31.4
2022-10-29T20:44:39.825Z,30.8
2022-10-29T20:47:27.508Z,33.7
2022-10-29T20:50:15.220Z,30.5
2022-10-29T20:53:02.913Z,31.1
2022-10-29T20:55:51.109Z,30.9
2022-10-29T20:58:38.995Z,28.9
2022-10-29T21:01:26.671Z,31.5
2022-10-29T21:04:46.518Z,30.5
2022-10-29T21:07:34.126Z,31.6
2022-10-29T21:10:23.629Z,32.6
2022-10-29T21:13:11.389Z,33
2022-10-29T21:15:58.996Z,31
2022-10-29T21:18:51.159Z,29.2
2022-10-29T21:21:40.998Z,27.3
2022-10-29T21:24:28.723Z,25.5
2022-10-29T21:27:48.402Z,27.5
2022-10-29T21:30:40.035Z,28.4
2022-10-29T21:33:29.218Z,28.4
2022-10-29T21:36:17.086Z,26.1
2022-10-29T21:39:36.667Z,26.4
2022-10-29T21:42:24.407Z,26.1
2022-10-29T21:45:12.005Z,27.9
2022-10-29T21:47:59.747Z,27.3
2022-10-29T21:50:47.371Z,26.2
2022-10-29T21:53:34.839Z,28.2
2022-10-29T21:56:23.512Z,26.5
2022-10-29T21:59:11.110Z,27.1
2022-10-29T22:01:58.957Z,26.4
2022-10-29T22:04:46.699Z,26.8
2022-10-29T22:07:34.458Z,26.8
2022-10-29T22:10:22.447Z,26.5
2022-10-29T22:13:14.313Z,24.5
2022-10-29T22:16:34.245Z,27.8
2022-10-29T22:19:22.463Z,24.6
2022-10-29T22:22:42.782Z,24.8
2022-10-29T22:26:02.868Z,25.8
2022-10-29T22:28:50.481Z,24.6
2022-10-29T22:31:38.431Z,26.3
2022-10-29T22:34:25.952Z,26.4
2022-10-29T22:37:13.490Z,26.2
2022-10-29T22:40:01.188Z,26.7
2022-10-29T22:43:25.616Z,26.6
2022-10-29T22:46:45.794Z,24.7
2022-10-29T22:49:35.911Z,25.5
2022-10-29T22:52:56.053Z,25.8
2022-10-29T22:55:43.785Z,26.3
2022-10-29T22:58:37.170Z,25.3
2022-10-29T23:01:24.923Z,24.5
2022-10-29T23:04:44.538Z,27.1
2022-10-29T23:10:51.939Z,26.5
2022-10-29T23:14:13.613Z,24.8
2022-10-29T23:17:01.411Z,24.8
2022-10-29T23:19:49.548Z,24.9
2022-10-29T23:22:40.800Z,26.6
2022-10-29T23:25:28.321Z,26
2022-10-29T23:28:15.868Z,26.5
2022-10-29T23:31:03.489Z,28.4
2022-10-29T23:33:55.337Z,27.6
2022-10-29T23:36:43.455Z,26.9
2022-10-29T23:39:31.368Z,27.6
2022-10-29T23:42:52.869Z,28.2
2022-10-29T23:46:12.536Z,28.1
2022-10-29T23:49:00.178Z,27.4
2022-10-29T23:51:47.892Z,27.8
2022-10-29T23:55:07.383Z,26.6
2022-10-29T23:57:55.199Z,28.3
